Time;durP1;ratioP1;P1;durP2;ratioP2;P2;SDS_P1;SDS_P2;PMS_P1;PMS_P2;Temp;Humidity;BMP_temperature;BMP_pressure;BME280_temperature;BME280_humidity;BME280_pressure;Samples;Min_cycle;Max_cycle;Signal;HPM_P1;HPM_P2
2023/06/28 00:01:31;;;;;;;5.20;1.63;;;;;;;;;;5094037;28;20454;-56
2023/06/28 00:03:58;;;;;;;2.27;2.07;;;;;;;;;;5093859;28;20976;-57
2023/06/28 00:06:25;;;;;;;2.10;1.90;;;;;;;;;;5094084;28;20509;-57
2023/06/28 00:08:51;;;;;;;5.23;1.80;;;;;;;;;;5093967;28;20547;-56
2023/06/28 00:11:18;;;;;;;4.93;2.00;;;;;;;;;;5093922;28;20540;-57
2023/06/28 00:13:45;;;;;;;2.50;1.90;;;;;;;;;;5093785;28;20574;-56
2023/06/28 00:16:14;;;;;;;2.50;1.90;;;;;;;;;;5093669;28;20516;-57
2023/06/28 00:18:43;;;;;;;3.10;1.97;;;;;;;;;;5093634;28;20455;-57
2023/06/28 00:21:13;;;;;;;1.97;1.57;;;;;;;;;;5093719;28;20457;-56
2023/06/28 00:23:40;;;;;;;4.23;2.10;;;;;;;;;;5093581;28;20539;-57
2023/06/28 00:26:07;;;;;;;8.30;2.83;;;;;;;;;;5093362;28;20945;-57
2023/06/28 00:28:34;;;;;;;5.73;2.47;;;;;;;;;;5093500;28;20444;-57
2023/06/28 00:31:01;;;;;;;4.60;2.20;;;;;;;;;;5093430;28;20538;-57
2023/06/28 00:33:30;;;;;;;4.93;2.00;;;;;;;;;;5093535;28;20899;-57
2023/06/28 00:35:56;;;;;;;1.70;1.60;;;;;;;;;;5093562;28;20444;-57
2023/06/28 00:38:23;;;;;;;1.97;1.70;;;;;;;;;;5093258;28;20517;-56
2023/06/28 00:40:50;;;;;;;4.90;2.03;;;;;;;;;;5093790;28;20483;-57
2023/06/28 00:43:17;;;;;;;2.80;1.90;;;;;;;;;;5093349;28;20539;-57
2023/06/28 00:45:44;;;;;;;2.47;2.10;;;;;;;;;;5093280;28;20532;-57
2023/06/28 00:48:11;;;;;;;6.77;2.33;;;;;;;;;;5093401;28;20535;-56
2023/06/28 00:50:40;;;;;;;3.30;2.00;;;;;;;;;;5093295;28;20881;-56
2023/06/28 00:53:07;;;;;;;3.47;2.00;;;;;;;;;;5093216;28;20571;-57
2023/06/28 00:55:34;;;;;;;5.80;2.37;;;;;;;;;;5092920;28;20555;-57
2023/06/28 00:58:01;;;;;;;3.93;2.60;;;;;;;;;;5093085;28;20453;-56
2023/06/28 01:00:28;;;;;;;3.00;2.30;;;;;;;;;;5093311;28;20543;-57
2023/06/28 01:02:55;;;;;;;4.23;2.00;;;;;;;;;;5093160;28;20459;-57
2023/06/28 01:05:22;;;;;;;2.90;2.07;;;;;;;;;;5093000;28;21046;-57
2023/06/28 01:07:51;;;;;;;5.20;2.70;;;;;;;;;;5092986;28;20448;-56
2023/06/28 01:10:18;;;;;;;5.93;2.70;;;;;;;;;;5092889;28;21036;-55
2023/06/28 01:12:46;;;;;;;4.20;2.47;;;;;;;;;;5092743;28;20916;-57
2023/06/28 01:15:13;;;;;;;3.00;2.20;;;;;;;;;;5092823;28;20457;-57
2023/06/28 01:17:40;;;;;;;4.10;1.90;;;;;;;;;;5092815;28;20453;-56
2023/06/28 01:20:07;;;;;;;5.40;2.60;;;;;;;;;;5092943;28;20539;-57
2023/06/28 01:22:35;;;;;;;3.20;2.30;;;;;;;;;;5092840;28;20544;-57
2023/06/28 01:25:04;;;;;;;2.70;2.50;;;;;;;;;;5092778;28;20540;-57
2023/06/28 01:27:31;;;;;;;3.23;2.33;;;;;;;;;;5092994;28;20442;-57
2023/06/28 01:29:58;;;;;;;3.73;2.40;;;;;;;;;;5092935;28;20535;-56
2023/06/28 01:32:25;;;;;;;2.40;1.90;;;;;;;;;;5092725;28;20539;-56
2023/06/28 01:34:52;;;;;;;2.17;1.97;;;;;;;;;;5092760;28;20865;-57
2023/06/28 01:37:19;;;;;;;3.50;2.20;;;;;;;;;;5092717;28;20546;-56
2023/06/28 01:39:47;;;;;;;8.13;2.40;;;;;;;;;;5092639;28;20449;-56
2023/06/28 01:42:15;;;;;;;7.40;4.10;;;;;;;;;;5092825;28;20455;-57
2023/06/28 01:44:42;;;;;;;4.30;2.60;;;;;;;;;;5092778;28;20572;-57
2023/06/28 01:47:09;;;;;;;3.57;2.40;;;;;;;;;;5092690;28;20542;-57
2023/06/28 01:49:36;;;;;;;8.30;3.20;;;;;;;;;;5092612;28;20448;-57
2023/06/28 01:52:03;;;;;;;9.17;2.33;;;;;;;;;;5092493;28;20526;-57
2023/06/28 01:54:32;;;;;;;5.07;2.37;;;;;;;;;;5092430;28;20511;-57
2023/06/28 01:56:59;;;;;;;8.37;2.70;;;;;;;;;;5092301;28;20576;-58
2023/06/28 01:59:27;;;;;;;3.20;2.10;;;;;;;;;;5092567;28;20509;-56
2023/06/28 02:01:54;;;;;;;5.23;2.70;;;;;;;;;;5092440;28;20517;-57
2023/06/28 02:04:21;;;;;;;3.20;2.20;;;;;;;;;;5092482;28;20547;-57
2023/06/28 02:06:48;;;;;;;5.00;2.53;;;;;;;;;;5092358;28;20459;-57
2023/06/28 02:09:15;;;;;;;3.83;2.10;;;;;;;;;;5092384;28;20963;-57
2023/06/28 02:11:42;;;;;;;2.40;2.10;;;;;;;;;;5092356;28;20542;-55
2023/06/28 02:14:09;;;;;;;4.20;2.10;;;;;;;;;;5092275;28;20532;-56
2023/06/28 02:16:37;;;;;;;4.43;2.60;;;;;;;;;;5092398;28;20540;-56
2023/06/28 02:19:04;;;;;;;3.80;2.40;;;;;;;;;;5092220;28;20450;-57
2023/06/28 02:21:31;;;;;;;6.70;2.87;;;;;;;;;;5092688;28;21006;-56
2023/06/28 02:23:58;;;;;;;8.17;2.27;;;;;;;;;;5092365;28;20452;-57
2023/06/28 02:26:25;;;;;;;4.70;2.17;;;;;;;;;;5092419;28;20448;-57
2023/06/28 02:28:52;;;;;;;3.93;2.20;;;;;;;;;;5094482;28;20806;-57
2023/06/28 02:31:19;;;;;;;3.63;2.40;;;;;;;;;;5095836;28;20542;-56
2023/06/28 02:33:47;;;;;;;6.10;2.50;;;;;;;;;;5095651;28;20562;-57
2023/06/28 02:36:14;;;;;;;4.93;2.20;;;;;;;;;;5095857;28;20446;-57
2023/06/28 02:38:41;;;;;;;6.27;1.83;;;;;;;;;;5095773;28;20544;-57
2023/06/28 02:41:08;;;;;;;4.93;2.23;;;;;;;;;;5095741;28;20487;-56
2023/06/28 02:43:34;;;;;;;4.00;2.20;;;;;;;;;;5095525;28;20512;-56
2023/06/28 02:46:01;;;;;;;4.07;2.50;;;;;;;;;;5095571;28;20868;-57
2023/06/28 02:48:28;;;;;;;5.57;2.00;;;;;;;;;;5095391;28;20531;-57
2023/06/28 02:50:56;;;;;;;7.33;2.70;;;;;;;;;;5095664;28;20527;-56
2023/06/28 02:53:23;;;;;;;3.53;2.20;;;;;;;;;;5095381;28;20477;-57
2023/06/28 02:55:50;;;;;;;4.03;2.10;;;;;;;;;;5095249;28;20563;-57
2023/06/28 02:58:17;;;;;;;5.60;2.23;;;;;;;;;;5095331;28;20988;-56
2023/06/28 03:00:46;;;;;;;3.53;2.50;;;;;;;;;;5095183;28;20459;-57
2023/06/28 03:03:14;;;;;;;5.73;2.40;;;;;;;;;;5095054;28;20453;-56
2023/06/28 03:05:41;;;;;;;5.90;2.33;;;;;;;;;;5095049;28;20947;-57
2023/06/28 03:08:09;;;;;;;4.37;1.70;;;;;;;;;;5095148;28;20508;-57
2023/06/28 03:10:36;;;;;;;5.93;2.70;;;;;;;;;;5095119;28;20455;-57
2023/06/28 03:13:03;;;;;;;2.23;1.70;;;;;;;;;;5094922;28;20543;-57
2023/06/28 03:15:30;;;;;;;4.07;2.20;;;;;;;;;;5094790;28;20456;-58
2023/06/28 03:17:57;;;;;;;3.87;2.00;;;;;;;;;;5095138;28;20448;-56
2023/06/28 03:20:25;;;;;;;6.57;2.33;;;;;;;;;;5095021;28;20484;-56
2023/06/28 03:22:52;;;;;;;3.83;2.30;;;;;;;;;;5094710;28;20459;-57
2023/06/28 03:25:20;;;;;;;6.00;2.33;;;;;;;;;;5094828;28;20470;-56
2023/06/28 03:27:47;;;;;;;4.77;2.47;;;;;;;;;;5094732;28;20448;-57
2023/06/28 03:30:14;;;;;;;2.50;1.97;;;;;;;;;;5094525;28;20540;-57
2023/06/28 03:32:41;;;;;;;3.47;2.10;;;;;;;;;;5094867;28;20546;-56
2023/06/28 03:35:08;;;;;;;5.87;2.47;;;;;;;;;;5094617;28;20596;-57
2023/06/28 03:37:35;;;;;;;6.90;2.70;;;;;;;;;;5094435;28;21002;-56
2023/06/28 03:40:03;;;;;;;7.13;2.17;;;;;;;;;;5094619;28;20470;-57
2023/06/28 03:42:31;;;;;;;5.20;2.20;;;;;;;;;;5094324;28;20850;-57
2023/06/28 03:44:58;;;;;;;3.50;2.50;;;;;;;;;;5094375;28;20459;-57
2023/06/28 03:47:25;;;;;;;5.00;2.43;;;;;;;;;;5094228;28;20535;-56
2023/06/28 03:49:52;;;;;;;2.90;2.00;;;;;;;;;;5094372;28;20535;-57
2023/06/28 03:52:18;;;;;;;4.27;2.30;;;;;;;;;;5094141;28;20444;-57
2023/06/28 03:54:45;;;;;;;8.33;2.97;;;;;;;;;;5094087;28;20512;-57
2023/06/28 03:57:12;;;;;;;8.83;3.00;;;;;;;;;;5093827;28;20513;-57
2023/06/28 03:59:41;;;;;;;3.60;2.30;;;;;;;;;;5094303;28;20535;-57
2023/06/28 04:02:07;;;;;;;3.17;2.37;;;;;;;;;;5094245;28;20540;-57
2023/06/28 04:04:34;;;;;;;6.90;2.27;;;;;;;;;;5094033;28;20888;-57
2023/06/28 04:07:01;;;;;;;5.20;2.30;;;;;;;;;;5093972;28;20497;-56
2023/06/28 04:09:28;;;;;;;8.83;2.57;;;;;;;;;;5093797;28;20931;-57
2023/06/28 04:11:55;;;;;;;4.70;2.00;;;;;;;;;;5093731;28;20912;-57
2023/06/28 04:14:24;;;;;;;5.00;2.50;;;;;;;;;;5093885;28;20483;-57
2023/06/28 04:16:52;;;;;;;5.87;2.13;;;;;;;;;;5093849;28;20479;-57
2023/06/28 04:19:19;;;;;;;3.93;1.90;;;;;;;;;;5093841;28;20544;-57
2023/06/28 04:21:46;;;;;;;3.13;2.83;;;;;;;;;;5093741;28;20492;-57
2023/06/28 04:24:13;;;;;;;3.10;2.10;;;;;;;;;;5093416;28;20994;-57
2023/06/28 04:26:40;;;;;;;6.93;2.10;;;;;;;;;;5093817;28;20534;-57
2023/06/28 04:29:07;;;;;;;2.63;2.10;;;;;;;;;;5093618;28;20891;-57
2023/06/28 04:31:34;;;;;;;4.20;2.40;;;;;;;;;;5093596;28;20491;-57
2023/06/28 04:34:02;;;;;;;4.53;2.10;;;;;;;;;;5093539;28;20471;-57
2023/06/28 04:36:29;;;;;;;6.90;2.50;;;;;;;;;;5094395;28;20503;-56
2023/06/28 04:38:57;;;;;;;4.93;2.20;;;;;;;;;;5093222;28;20448;-56
2023/06/28 04:41:25;;;;;;;8.20;2.20;;;;;;;;;;5093504;28;20470;-56
2023/06/28 04:43:55;;;;;;;8.10;2.30;;;;;;;;;;5093450;28;20530;-56
2023/06/28 04:46:22;;;;;;;8.80;2.40;;;;;;;;;;5093562;28;20450;-56
2023/06/28 04:48:49;;;;;;;6.70;2.40;;;;;;;;;;5093263;28;20447;-56
2023/06/28 04:51:17;;;;;;;5.03;2.47;;;;;;;;;;5092470;28;20451;-57
2023/06/28 04:53:44;;;;;;;3.10;2.33;;;;;;;;;;5093270;28;20502;-55
2023/06/28 04:56:11;;;;;;;7.97;2.23;;;;;;;;;;5093004;28;20563;-56
2023/06/28 04:58:38;;;;;;;4.10;2.40;;;;;;;;;;5093074;28;20482;-57
2023/06/28 05:01:07;;;;;;;4.33;2.20;;;;;;;;;;5093099;28;20452;-56
2023/06/28 05:03:34;;;;;;;9.83;2.77;;;;;;;;;;5092984;28;20523;-54
2023/06/28 05:06:02;;;;;;;4.60;2.07;;;;;;;;;;5092827;28;20452;-54
2023/06/28 05:08:30;;;;;;;6.03;2.87;;;;;;;;;;5093063;28;20547;-56
2023/06/28 05:10:57;;;;;;;2.50;2.00;;;;;;;;;;5092953;28;20876;-57
2023/06/28 05:13:24;;;;;;;5.87;2.30;;;;;;;;;;5092831;28;20481;-56
2023/06/28 05:15:51;;;;;;;4.20;2.27;;;;;;;;;;5092904;28;20543;-57
2023/06/28 05:18:18;;;;;;;4.00;1.93;;;;;;;;;;5092741;28;20539;-58
2023/06/28 05:20:45;;;;;;;5.00;2.23;;;;;;;;;;5092818;28;20882;-56
2023/06/28 05:23:13;;;;;;;4.63;2.30;;;;;;;;;;5092621;28;20976;-56
2023/06/28 05:25:42;;;;;;;4.77;2.73;;;;;;;;;;5092785;28;20484;-56
2023/06/28 05:28:10;;;;;;;5.50;2.47;;;;;;;;;;5092756;28;20449;-56
2023/06/28 05:30:37;;;;;;;9.93;2.17;;;;;;;;;;5092529;28;20448;-56
2023/06/28 05:33:04;;;;;;;10.50;2.10;;;;;;;;;;5092466;28;20456;-56
2023/06/28 05:35:32;;;;;;;7.10;2.03;;;;;;;;;;5092577;28;20583;-56
2023/06/28 05:37:59;;;;;;;3.37;2.13;;;;;;;;;;5092551;28;20456;-58
2023/06/28 05:40:27;;;;;;;8.33;2.37;;;;;;;;;;5092894;28;20879;-57
2023/06/28 05:42:57;;;;;;;3.50;2.20;;;;;;;;;;5092404;28;20459;-55
2023/06/28 05:45:24;;;;;;;7.33;2.80;;;;;;;;;;5092216;28;20449;-56
2023/06/28 05:47:51;;;;;;;6.90;2.20;;;;;;;;;;5092568;28;20898;-57
2023/06/28 05:50:20;;;;;;;4.00;2.50;;;;;;;;;;5092575;28;20986;-58
2023/06/28 05:52:47;;;;;;;3.23;1.63;;;;;;;;;;5092304;28;20947;-58
2023/06/28 05:55:14;;;;;;;2.40;1.80;;;;;;;;;;5091898;28;20480;-58
2023/06/28 05:57:41;;;;;;;6.70;2.20;;;;;;;;;;5092154;28;20539;-55
2023/06/28 06:00:11;;;;;;;4.47;2.10;;;;;;;;;;5092210;28;20540;-55
2023/06/28 06:02:38;;;;;;;3.87;1.90;;;;;;;;;;5094332;28;20451;-56
2023/06/28 06:05:05;;;;;;;4.43;2.60;;;;;;;;;;5096246;28;20992;-56
2023/06/28 06:07:34;;;;;;;5.43;1.80;;;;;;;;;;5096072;28;20448;-56
2023/06/28 06:10:01;;;;;;;4.63;1.50;;;;;;;;;;5096032;28;20816;-56
2023/06/28 06:12:28;;;;;;;5.03;2.03;;;;;;;;;;5095975;28;20459;-56
2023/06/28 06:14:56;;;;;;;4.43;2.20;;;;;;;;;;5095696;28;20480;-56
2023/06/28 06:17:25;;;;;;;3.77;2.00;;;;;;;;;;5096105;28;20807;-57
2023/06/28 06:19:52;;;;;;;3.90;2.47;;;;;;;;;;5095593;28;20452;-57
2023/06/28 06:22:19;;;;;;;5.30;2.23;;;;;;;;;;5095864;28;20479;-57
2023/06/28 06:24:46;;;;;;;10.33;2.30;;;;;;;;;;5095685;28;20639;-56
2023/06/28 06:27:13;;;;;;;6.13;2.10;;;;;;;;;;5095547;28;20480;-57
2023/06/28 06:29:39;;;;;;;3.80;2.20;;;;;;;;;;5095950;28;20911;-55
2023/06/28 06:32:07;;;;;;;4.30;2.30;;;;;;;;;;5095945;28;20454;-55
2023/06/28 06:34:35;;;;;;;3.40;2.50;;;;;;;;;;5095701;28;20949;-55
2023/06/28 06:37:04;;;;;;;6.07;2.07;;;;;;;;;;5095545;28;20549;-55
2023/06/28 06:39:31;;;;;;;8.50;2.40;;;;;;;;;;5095345;28;20448;-56
2023/06/28 06:41:58;;;;;;;6.40;1.97;;;;;;;;;;5095339;28;20454;-56
2023/06/28 06:44:25;;;;;;;2.80;1.73;;;;;;;;;;5095483;28;20543;-55
2023/06/28 06:46:52;;;;;;;3.10;2.43;;;;;;;;;;5095494;28;20449;-55
2023/06/28 06:49:20;;;;;;;1.93;1.80;;;;;;;;;;5095338;28;20551;-55
2023/06/28 06:51:48;;;;;;;4.93;1.70;;;;;;;;;;5095335;28;20491;-56
2023/06/28 06:54:15;;;;;;;3.77;2.07;;;;;;;;;;5095020;28;20561;-55
2023/06/28 06:56:42;;;;;;;6.73;1.87;;;;;;;;;;5094995;28;20509;-58
2023/06/28 06:59:09;;;;;;;2.30;1.50;;;;;;;;;;5095300;28;20543;-58
2023/06/28 07:01:36;;;;;;;5.87;3.03;;;;;;;;;;5095168;28;20489;-57
2023/06/28 07:04:03;;;;;;;3.83;1.87;;;;;;;;;;5094986;28;20556;-55
2023/06/28 07:06:30;;;;;;;4.00;2.57;;;;;;;;;;5094774;28;20450;-56
2023/06/28 07:08:59;;;;;;;3.53;1.67;;;;;;;;;;5094495;28;20512;-57
2023/06/28 07:11:26;;;;;;;2.70;1.60;;;;;;;;;;5095085;28;20444;-56
2023/06/28 07:13:53;;;;;;;4.73;1.80;;;;;;;;;;5094241;28;20944;-56
2023/06/28 07:16:20;;;;;;;9.43;2.73;;;;;;;;;;5094462;28;20488;-56
2023/06/28 07:18:47;;;;;;;4.20;2.00;;;;;;;;;;5094736;28;20548;-56
2023/06/28 07:21:14;;;;;;;3.03;1.70;;;;;;;;;;5094626;28;20502;-57
2023/06/28 07:23:41;;;;;;;3.90;1.63;;;;;;;;;;5094457;28;20486;-57
2023/06/28 07:26:09;;;;;;;6.83;2.00;;;;;;;;;;5094680;28;20545;-55
2023/06/28 07:28:36;;;;;;;1.80;1.50;;;;;;;;;;5094340;28;20967;-55
2023/06/28 07:31:03;;;;;;;2.50;1.50;;;;;;;;;;5094394;28;20536;-57
2023/06/28 07:33:30;;;;;;;4.70;1.77;;;;;;;;;;5094158;28;20461;-57
2023/06/28 07:35:57;;;;;;;6.43;1.80;;;;;;;;;;5094085;28;20580;-54
2023/06/28 07:38:24;;;;;;;4.70;1.73;;;;;;;;;;5094001;28;20455;-58
2023/06/28 07:40:53;;;;;;;2.33;1.40;;;;;;;;;;5094367;28;20545;-58
2023/06/28 07:43:21;;;;;;;3.43;1.57;;;;;;;;;;5094367;28;20860;-60
2023/06/28 07:45:48;;;;;;;3.90;1.80;;;;;;;;;;5094252;28;20541;-55
2023/06/28 07:48:15;;;;;;;5.73;1.70;;;;;;;;;;5094025;28;20461;-54
2023/06/28 07:50:43;;;;;;;1.63;1.50;;;;;;;;;;5094014;28;20551;-55
2023/06/28 07:53:09;;;;;;;4.80;1.27;;;;;;;;;;5094266;28;20462;-57
2023/06/28 07:55:36;;;;;;;3.80;1.47;;;;;;;;;;5093815;28;20587;-55
2023/06/28 07:58:03;;;;;;;2.07;1.50;;;;;;;;;;5094185;28;20541;-57
2023/06/28 08:00:31;;;;;;;2.63;1.40;;;;;;;;;;5093917;28;20533;-55
2023/06/28 08:02:59;;;;;;;4.13;1.40;;;;;;;;;;5093737;28;20508;-54
2023/06/28 08:05:26;;;;;;;2.20;1.60;;;;;;;;;;5093865;28;20490;-56
2023/06/28 08:07:55;;;;;;;3.85;1.60;;;;;;;;;;5093289;28;20448;-52
2023/06/28 08:10:22;;;;;;;8.10;1.80;;;;;;;;;;5093736;28;20196;-55
2023/06/28 08:12:49;;;;;;;1.60;1.50;;;;;;;;;;5093502;28;20544;-56
2023/06/28 08:15:18;;;;;;;1.57;1.30;;;;;;;;;;5093469;28;20478;-54
2023/06/28 08:17:46;;;;;;;2.07;1.20;;;;;;;;;;5093329;28;20542;-56
2023/06/28 08:20:13;;;;;;;3.23;1.70;;;;;;;;;;5093624;28;20533;-54
2023/06/28 08:22:40;;;;;;;4.20;1.40;;;;;;;;;;5093385;28;20945;-55
2023/06/28 08:25:07;;;;;;;3.43;1.47;;;;;;;;;;5092726;28;20450;-55
2023/06/28 08:27:34;;;;;;;3.40;1.37;;;;;;;;;;5093023;28;20497;-55
2023/06/28 08:30:01;;;;;;;2.70;1.60;;;;;;;;;;5093240;28;20445;-56
2023/06/28 08:32:28;;;;;;;2.60;1.30;;;;;;;;;;5093320;28;20461;-56
2023/06/28 08:34:56;;;;;;;2.90;1.63;;;;;;;;;;5092958;28;20473;-56
2023/06/28 08:37:23;;;;;;;3.33;1.53;;;;;;;;;;5093140;28;20894;-56
2023/06/28 08:39:50;;;;;;;6.20;2.00;;;;;;;;;;5093266;28;20476;-57
2023/06/28 08:42:19;;;;;;;3.10;1.40;;;;;;;;;;5093021;28;20896;-57
2023/06/28 08:44:47;;;;;;;2.73;1.73;;;;;;;;;;5093068;28;20483;-55
2023/06/28 08:47:14;;;;;;;1.87;1.47;;;;;;;;;;5093317;28;20478;-57
2023/06/28 08:49:41;;;;;;;4.80;1.33;;;;;;;;;;5093037;28;20942;-57
2023/06/28 08:52:10;;;;;;;2.90;1.27;;;;;;;;;;5093141;28;20558;-56
2023/06/28 08:54:37;;;;;;;3.93;1.73;;;;;;;;;;5092840;28;20447;-54
2023/06/28 08:57:05;;;;;;;3.00;1.70;;;;;;;;;;5092743;28;20477;-56
2023/06/28 08:59:35;;;;;;;3.47;2.50;;;;;;;;;;5092811;28;20991;-56
2023/06/28 09:02:03;;;;;;;2.63;1.40;;;;;;;;;;5092882;28;20470;-54
2023/06/28 09:04:30;;;;;;;2.60;1.40;;;;;;;;;;5093010;28;20482;-54
2023/06/28 09:06:58;;;;;;;2.03;1.53;;;;;;;;;;5092684;28;20462;-56
2023/06/28 09:09:27;;;;;;;2.60;1.60;;;;;;;;;;5092668;28;20538;-56
2023/06/28 09:11:54;;;;;;;3.60;1.40;;;;;;;;;;5092498;28;21025;-52
2023/06/28 09:14:21;;;;;;;2.77;1.60;;;;;;;;;;5092934;28;20542;-54
2023/06/28 09:16:48;;;;;;;4.47;1.60;;;;;;;;;;5092674;28;20568;-53
2023/06/28 09:19:15;;;;;;;1.77;1.67;;;;;;;;;;5092732;28;20450;-56
2023/06/28 09:21:42;;;;;;;2.30;1.40;;;;;;;;;;5092666;28;20857;-61
2023/06/28 09:24:12;;;;;;;2.27;1.77;;;;;;;;;;5092561;28;20541;-58
2023/06/28 09:26:45;;;;;;;1.60;1.50;;;;;;;;;;5092847;28;20451;-55
2023/06/28 09:29:13;;;;;;;3.33;1.60;;;;;;;;;;5092790;28;20458;-55
2023/06/28 09:31:41;;;;;;;1.20;1.10;;;;;;;;;;5092682;28;20455;-56
2023/06/28 09:34:08;;;;;;;2.60;1.50;;;;;;;;;;5092533;28;20953;-54
2023/06/28 09:36:37;;;;;;;2.97;1.43;;;;;;;;;;5092887;28;20574;-55
2023/06/28 09:39:04;;;;;;;2.63;1.40;;;;;;;;;;5096794;28;20541;-55
2023/06/28 09:41:38;;;;;;;3.37;1.77;;;;;;;;;;5096528;28;20952;-55
2023/06/28 09:44:08;;;;;;;2.90;1.80;;;;;;;;;;5096738;28;20537;-52
2023/06/28 09:46:35;;;;;;;2.37;1.57;;;;;;;;;;5096506;28;20451;-55
2023/06/28 09:49:02;;;;;;;3.57;1.60;;;;;;;;;;5096349;28;20452;-55
2023/06/28 09:51:31;;;;;;;2.90;1.57;;;;;;;;;;5096214;28;20995;-54
2023/06/28 09:53:58;;;;;;;5.03;1.97;;;;;;;;;;5096437;28;20539;-52
2023/06/28 09:56:35;;;;;;;2.03;1.50;;;;;;;;;;5096032;28;20489;-56
2023/06/28 09:59:03;;;;;;;2.10;1.70;;;;;;;;;;5096286;28;20451;-58
2023/06/28 10:01:31;;;;;;;2.23;1.37;;;;;;;;;;5096172;28;20546;-59
2023/06/28 10:03:59;;;;;;;2.77;1.47;;;;;;;;;;5095495;28;20537;-58
2023/06/28 10:06:29;;;;;;;3.97;1.80;;;;;;;;;;5096020;28;20783;-55
2023/06/28 10:08:58;;;;;;;4.97;2.00;;;;;;;;;;5096024;28;20500;-57
2023/06/28 10:11:25;;;;;;;1.73;1.50;;;;;;;;;;5096005;28;20451;-57
2023/06/28 10:13:52;;;;;;;5.30;1.50;;;;;;;;;;5096059;28;20890;-57
2023/06/28 10:16:19;;;;;;;4.93;1.83;;;;;;;;;;5095812;28;20513;-56
2023/06/28 10:18:48;;;;;;;4.20;1.33;;;;;;;;;;5096064;28;20508;-59
2023/06/28 10:21:15;;;;;;;2.50;1.30;;;;;;;;;;5096292;28;20504;-57
2023/06/28 10:23:43;;;;;;;5.80;1.47;;;;;;;;;;5095883;28;20529;-56
2023/06/28 10:26:14;;;;;;;2.53;1.40;;;;;;;;;;5095743;28;20457;-58
2023/06/28 10:28:41;;;;;;;4.53;1.47;;;;;;;;;;5095643;28;20805;-59
2023/06/28 10:31:09;;;;;;;2.87;1.50;;;;;;;;;;5095535;28;20449;-58
2023/06/28 10:33:37;;;;;;;2.10;1.50;;;;;;;;;;5095792;28;20455;-58
2023/06/28 10:36:06;;;;;;;4.53;1.53;;;;;;;;;;5095317;28;20477;-55
2023/06/28 10:38:33;;;;;;;2.80;1.43;;;;;;;;;;5095014;28;20461;-56
2023/06/28 10:41:01;;;;;;;1.60;1.10;;;;;;;;;;5095262;28;20975;-57
2023/06/28 10:43:28;;;;;;;2.10;1.23;;;;;;;;;;5095169;28;20528;-56
2023/06/28 10:45:54;;;;;;;19.47;3.40;;;;;;;;;;5095495;28;20541;-57
2023/06/28 10:48:22;;;;;;;2.30;1.30;;;;;;;;;;5094233;28;20542;-57
2023/06/28 10:50:50;;;;;;;2.20;1.60;;;;;;;;;;5095283;28;20546;-57
2023/06/28 10:53:22;;;;;;;2.03;1.50;;;;;;;;;;5095041;28;20537;-54
2023/06/28 10:56:07;;;;;;;1.50;1.40;;;;;;;;;;5094922;28;20486;-56
2023/06/28 10:58:37;;;;;;;1.63;1.50;;;;;;;;;;5095245;28;20486;-57
2023/06/28 11:01:04;;;;;;;1.27;1.17;;;;;;;;;;5095265;28;20474;-58
2023/06/28 11:03:38;;;;;;;2.90;1.20;;;;;;;;;;5081266;28;20523;-58
2023/06/28 11:06:05;;;;;;;4.10;1.60;;;;;;;;;;5074769;28;20550;-57
2023/06/28 11:08:38;;;;;;;1.77;1.40;;;;;;;;;;5074665;28;20542;-59
2023/06/28 11:11:06;;;;;;;1.70;1.60;;;;;;;;;;5074773;28;20479;-59
2023/06/28 11:13:44;;;;;;;4.23;1.70;;;;;;;;;;5074557;28;20476;-55
2023/06/28 11:16:12;;;;;;;1.73;1.37;;;;;;;;;;5074637;28;20557;-53
2023/06/28 11:18:39;;;;;;;4.60;1.50;;;;;;;;;;5074594;28;20483;-55
2023/06/28 11:21:07;;;;;;;2.70;1.60;;;;;;;;;;5074375;28;20522;-56
2023/06/28 11:23:38;;;;;;;4.27;1.50;;;;;;;;;;5074665;28;20530;-57
2023/06/28 11:26:05;;;;;;;1.90;1.37;;;;;;;;;;5074568;28;20547;-57
2023/06/28 11:28:33;;;;;;;1.63;1.53;;;;;;;;;;5074381;28;20448;-57
2023/06/28 11:31:22;;;;;;;1.83;1.10;;;;;;;;;;5074192;28;20479;-58
2023/06/28 11:33:50;;;;;;;2.27;1.30;;;;;;;;;;5066516;28;20539;-58
2023/06/28 11:36:18;;;;;;;1.10;1.00;;;;;;;;;;5074143;28;20472;-60
2023/06/28 11:38:47;;;;;;;2.67;1.20;;;;;;;;;;5074382;28;20524;-58
2023/06/28 11:41:15;;;;;;;2.33;1.50;;;;;;;;;;5074252;28;20539;-60
2023/06/28 11:43:42;;;;;;;2.27;1.50;;;;;;;;;;5074132;28;20452;-57
2023/06/28 11:46:10;;;;;;;2.30;1.27;;;;;;;;;;5073852;28;20476;-56
2023/06/28 11:48:37;;;;;;;5.43;2.50;;;;;;;;;;5073759;28;20456;-56
2023/06/28 11:51:05;;;;;;;2.70;1.60;;;;;;;;;;5073978;28;20455;-56
2023/06/28 11:53:32;;;;;;;1.93;1.20;;;;;;;;;;5073983;28;20467;-56
2023/06/28 11:56:01;;;;;;;3.13;1.40;;;;;;;;;;5073411;28;20525;-56
2023/06/28 11:58:29;;;;;;;3.23;1.80;;;;;;;;;;5073346;28;20631;-56
2023/06/28 12:00:56;;;;;;;1.80;1.30;;;;;;;;;;5073209;28;21005;-58
2023/06/28 12:03:32;;;;;;;2.43;1.60;;;;;;;;;;5073672;28;20542;-57
2023/06/28 12:06:01;;;;;;;4.20;2.20;;;;;;;;;;5073616;28;20428;-58
2023/06/28 12:08:28;;;;;;;1.60;1.50;;;;;;;;;;5073411;28;20470;-58
2023/06/28 12:10:55;;;;;;;1.30;1.20;;;;;;;;;;5073469;28;21094;-56
2023/06/28 12:13:24;;;;;;;2.53;1.50;;;;;;;;;;5073554;28;20534;-57
2023/06/28 12:15:52;;;;;;;1.63;1.33;;;;;;;;;;5073106;28;20505;-57
2023/06/28 12:18:19;;;;;;;2.60;1.30;;;;;;;;;;5073417;28;20470;-56
2023/06/28 12:20:46;;;;;;;1.53;1.43;;;;;;;;;;5073447;28;20443;-58
2023/06/28 12:23:13;;;;;;;2.90;1.33;;;;;;;;;;5073245;28;20465;-56
2023/06/28 12:25:44;;;;;;;3.40;1.57;;;;;;;;;;5073040;28;20527;-56
2023/06/28 12:28:14;;;;;;;2.60;1.37;;;;;;;;;;5073189;28;20534;-57
2023/06/28 12:30:42;;;;;;;2.17;1.50;;;;;;;;;;5073391;28;20505;-58
2023/06/28 12:33:09;;;;;;;4.43;1.70;;;;;;;;;;5073085;28;20444;-57
2023/06/28 12:35:37;;;;;;;2.83;1.30;;;;;;;;;;5073035;28;20448;-57
2023/06/28 12:38:05;;;;;;;2.93;1.57;;;;;;;;;;5072947;28;20490;-57
2023/06/28 12:40:33;;;;;;;1.70;1.50;;;;;;;;;;5073234;28;20447;-57
2023/06/28 12:43:09;;;;;;;2.10;1.50;;;;;;;;;;5073185;28;20537;-58
2023/06/28 12:45:43;;;;;;;1.43;1.33;;;;;;;;;;5073044;28;20534;-57
2023/06/28 12:48:10;;;;;;;3.27;1.47;;;;;;;;;;5072991;28;20456;-58
2023/06/28 12:50:37;;;;;;;4.00;1.57;;;;;;;;;;5072833;28;20862;-56
2023/06/28 12:53:10;;;;;;;1.30;1.00;;;;;;;;;;5073031;28;20497;-56
2023/06/28 12:55:37;;;;;;;2.57;1.20;;;;;;;;;;5072732;28;20475;-56
2023/06/28 12:58:04;;;;;;;1.97;1.40;;;;;;;;;;5072938;28;20490;-57
2023/06/28 13:00:31;;;;;;;3.10;1.30;;;;;;;;;;5072841;28;20535;-56
2023/06/28 13:02:59;;;;;;;1.20;1.00;;;;;;;;;;5072722;28;20455;-58
2023/06/28 13:05:26;;;;;;;2.40;1.10;;;;;;;;;;5073074;28;20458;-57
2023/06/28 13:07:53;;;;;;;2.43;2.17;;;;;;;;;;5072885;28;20807;-57
2023/06/28 13:10:20;;;;;;;4.17;1.53;;;;;;;;;;5073016;28;20927;-59
2023/06/28 13:12:47;;;;;;;2.07;1.23;;;;;;;;;;5072137;28;20448;-58
2023/06/28 13:15:14;;;;;;;1.70;1.60;;;;;;;;;;5072568;28;20448;-58
2023/06/28 13:17:41;;;;;;;2.20;1.40;;;;;;;;;;5072409;28;20479;-59
2023/06/28 13:20:10;;;;;;;2.07;1.30;;;;;;;;;;5072753;28;20480;-58
2023/06/28 13:22:36;;;;;;;3.40;1.70;;;;;;;;;;5072591;28;20452;-56
2023/06/28 13:25:03;;;;;;;2.60;2.40;;;;;;;;;;5072441;28;21014;-58
2023/06/28 13:27:30;;;;;;;3.13;1.60;;;;;;;;;;5072406;28;20448;-58
2023/06/28 13:29:57;;;;;;;27.77;22.57;;;;;;;;;;5072357;28;20448;-59
2023/06/28 13:32:24;;;;;;;3.77;1.83;;;;;;;;;;5072360;28;20975;-58
2023/06/28 13:34:51;;;;;;;1.70;1.33;;;;;;;;;;5072550;28;20534;-58
2023/06/28 13:37:19;;;;;;;2.03;1.30;;;;;;;;;;5072347;28;20540;-58
2023/06/28 13:39:46;;;;;;;4.53;1.50;;;;;;;;;;5072472;28;20448;-58
2023/06/28 13:42:13;;;;;;;1.30;1.20;;;;;;;;;;5072374;28;20454;-57
2023/06/28 13:44:40;;;;;;;2.40;1.43;;;;;;;;;;5072237;28;20943;-59
2023/06/28 13:47:08;;;;;;;2.70;1.40;;;;;;;;;;5072521;28;20539;-58
2023/06/28 13:49:35;;;;;;;1.47;1.37;;;;;;;;;;5072455;28;20450;-59
2023/06/28 13:52:03;;;;;;;4.33;1.20;;;;;;;;;;5072301;28;20447;-58
2023/06/28 13:54:32;;;;;;;2.40;1.50;;;;;;;;;;5072148;28;20915;-55
2023/06/28 13:56:59;;;;;;;4.47;1.23;;;;;;;;;;5072093;28;20842;-59
2023/06/28 13:59:26;;;;;;;1.70;1.30;;;;;;;;;;5072256;28;20454;-58
2023/06/28 14:01:53;;;;;;;3.80;1.40;;;;;;;;;;5072349;28;20454;-57
2023/06/28 14:04:19;;;;;;;1.63;1.10;;;;;;;;;;5072348;28;20448;-59
2023/06/28 14:06:46;;;;;;;2.77;1.47;;;;;;;;;;5072325;28;20796;-58
2023/06/28 14:09:16;;;;;;;3.60;1.50;;;;;;;;;;5072297;28;20448;-57
2023/06/28 14:11:44;;;;;;;3.90;1.50;;;;;;;;;;5071977;28;20451;-59
2023/06/28 14:14:11;;;;;;;2.87;1.50;;;;;;;;;;5072374;28;20486;-59
2023/06/28 14:16:38;;;;;;;1.63;1.53;;;;;;;;;;5071974;28;20475;-59
2023/06/28 14:19:05;;;;;;;3.93;1.60;;;;;;;;;;5072293;28;20542;-58
2023/06/28 14:21:32;;;;;;;2.10;1.73;;;;;;;;;;5072180;28;21018;-58
2023/06/28 14:23:59;;;;;;;1.83;1.30;;;;;;;;;;5074542;28;20447;-58
2023/06/28 14:26:25;;;;;;;4.13;1.40;;;;;;;;;;5075611;28;20454;-59
2023/06/28 14:28:54;;;;;;;1.70;1.30;;;;;;;;;;5075926;28;20984;-58
2023/06/28 14:31:21;;;;;;;2.17;1.90;;;;;;;;;;5075649;28;20454;-58
2023/06/28 14:33:48;;;;;;;1.83;1.17;;;;;;;;;;5075623;28;20452;-58
2023/06/28 14:36:15;;;;;;;6.80;1.37;;;;;;;;;;5075417;28;20487;-57
2023/06/28 14:38:42;;;;;;;3.23;1.60;;;;;;;;;;5075360;28;20486;-58
2023/06/28 14:41:09;;;;;;;2.03;1.73;;;;;;;;;;5075235;28;20990;-58
2023/06/28 14:43:36;;;;;;;1.80;1.23;;;;;;;;;;5075349;28;20485;-58
2023/06/28 14:46:04;;;;;;;3.17;1.60;;;;;;;;;;5075457;28;20539;-58